sensor_id;sensor_type;location;lat;lon;timestamp;P1;durP1;ratioP1;P2;durP2;ratioP2
77146;SDS011;66121;52.584;9.694;2023-03-23T00:01:20;9.02;;;3.70;;
77146;SDS011;66121;52.584;9.694;2023-03-23T00:03:47;6.38;;;3.30;;
77146;SDS011;66121;52.584;9.694;2023-03-23T00:06:15;8.35;;;3.20;;
77146;SDS011;66121;52.584;9.694;2023-03-23T00:08:42;11.07;;;3.85;;
77146;SDS011;66121;52.584;9.694;2023-03-23T00:11:21;9.20;;;4.32;;
77146;SDS011;66121;52.584;9.694;2023-03-23T00:13:51;9.20;;;4.38;;
77146;SDS011;66121;52.584;9.694;2023-03-23T00:16:17;11.82;;;4.10;;
77146;SDS011;66121;52.584;9.694;2023-03-23T00:18:44;7.30;;;4.00;;
77146;SDS011;66121;52.584;9.694;2023-03-23T00:21:11;9.15;;;4.38;;
77146;SDS011;66121;52.584;9.694;2023-03-23T00:23:36;11.68;;;4.32;;
77146;SDS011;66121;52.584;9.694;2023-03-23T00:26:03;9.57;;;4.20;;
77146;SDS011;66121;52.584;9.694;2023-03-23T00:28:28;8.93;;;4.90;;
77146;SDS011;66121;52.584;9.694;2023-03-23T00:30:55;9.45;;;5.32;;
77146;SDS011;66121;52.584;9.694;2023-03-23T00:33:26;8.45;;;4.13;;
77146;SDS011;66121;52.584;9.694;2023-03-23T00:35:52;8.75;;;3.63;;
77146;SDS011;66121;52.584;9.694;2023-03-23T00:38:19;8.68;;;4.32;;
77146;SDS011;66121;52.584;9.694;2023-03-23T00:40:48;7.45;;;4.25;;
77146;SDS011;66121;52.584;9.694;2023-03-23T00:43:15;8.93;;;4.10;;
77146;SDS011;66121;52.584;9.694;2023-03-23T00:45:44;7.05;;;4.10;;
77146;SDS011;66121;52.584;9.694;2023-03-23T00:48:17;8.65;;;4.00;;
77146;SDS011;66121;52.584;9.694;2023-03-23T00:50:43;10.43;;;4.20;;
77146;SDS011;66121;52.584;9.694;2023-03-23T00:53:08;8.23;;;3.40;;
77146;SDS011;66121;52.584;9.694;2023-03-23T00:55:34;11.70;;;4.40;;
77146;SDS011;66121;52.584;9.694;2023-03-23T00:57:59;13.40;;;4.30;;
77146;SDS011;66121;52.584;9.694;2023-03-23T01:00:25;10.10;;;4.80;;
77146;SDS011;66121;52.584;9.694;2023-03-23T01:02:52;7.85;;;4.60;;
77146;SDS011;66121;52.584;9.694;2023-03-23T01:05:18;8.63;;;4.35;;
77146;SDS011;66121;52.584;9.694;2023-03-23T01:07:43;7.78;;;4.68;;
77146;SDS011;66121;52.584;9.694;2023-03-23T01:10:09;7.95;;;4.78;;
77146;SDS011;66121;52.584;9.694;2023-03-23T01:12:37;8.05;;;4.57;;
77146;SDS011;66121;52.584;9.694;2023-03-23T01:15:06;12.80;;;4.82;;
77146;SDS011;66121;52.584;9.694;2023-03-23T01:17:31;8.90;;;4.82;;
77146;SDS011;66121;52.584;9.694;2023-03-23T01:19:56;12.00;;;6.13;;
77146;SDS011;66121;52.584;9.694;2023-03-23T01:22:22;9.15;;;4.47;;
77146;SDS011;66121;52.584;9.694;2023-03-23T01:24:47;13.20;;;5.72;;
77146;SDS011;66121;52.584;9.694;2023-03-23T01:27:13;9.68;;;4.80;;
77146;SDS011;66121;52.584;9.694;2023-03-23T01:29:38;10.32;;;5.45;;
77146;SDS011;66121;52.584;9.694;2023-03-23T01:32:04;8.38;;;5.15;;
77146;SDS011;66121;52.584;9.694;2023-03-23T01:34:29;13.10;;;5.65;;
77146;SDS011;66121;52.584;9.694;2023-03-23T01:36:55;8.83;;;4.80;;
77146;SDS011;66121;52.584;9.694;2023-03-23T01:39:20;7.00;;;4.80;;
77146;SDS011;66121;52.584;9.694;2023-03-23T01:41:45;8.10;;;5.13;;
77146;SDS011;66121;52.584;9.694;2023-03-23T01:46:42;13.27;;;4.85;;
77146;SDS011;66121;52.584;9.694;2023-03-23T01:49:10;8.35;;;5.05;;
77146;SDS011;66121;52.584;9.694;2023-03-23T01:51:45;6.82;;;4.45;;
77146;SDS011;66121;52.584;9.694;2023-03-23T01:54:18;7.78;;;4.93;;
77146;SDS011;66121;52.584;9.694;2023-03-23T01:56:54;8.05;;;5.20;;
77146;SDS011;66121;52.584;9.694;2023-03-23T01:59:26;12.35;;;4.90;;
77146;SDS011;66121;52.584;9.694;2023-03-23T02:01:54;9.98;;;5.05;;
77146;SDS011;66121;52.584;9.694;2023-03-23T02:04:20;9.02;;;4.50;;
77146;SDS011;66121;52.584;9.694;2023-03-23T02:06:47;11.38;;;5.28;;
77146;SDS011;66121;52.584;9.694;2023-03-23T02:09:13;8.23;;;4.90;;
77146;SDS011;66121;52.584;9.694;2023-03-23T02:11:42;11.63;;;5.28;;
77146;SDS011;66121;52.584;9.694;2023-03-23T02:14:07;9.85;;;5.00;;
77146;SDS011;66121;52.584;9.694;2023-03-23T02:19:41;10.18;;;5.20;;
77146;SDS011;66121;52.584;9.694;2023-03-23T02:22:39;7.93;;;4.75;;
77146;SDS011;66121;52.584;9.694;2023-03-23T02:28:22;9.38;;;4.57;;
77146;SDS011;66121;52.584;9.694;2023-03-23T02:39:05;8.88;;;6.40;;
77146;SDS011;66121;52.584;9.694;2023-03-23T02:41:38;9.48;;;4.40;;
77146;SDS011;66121;52.584;9.694;2023-03-23T02:44:08;8.85;;;4.72;;
77146;SDS011;66121;52.584;9.694;2023-03-23T02:46:36;10.05;;;4.40;;
77146;SDS011;66121;52.584;9.694;2023-03-23T02:49:03;6.78;;;4.47;;
77146;SDS011;66121;52.584;9.694;2023-03-23T02:51:31;7.55;;;4.35;;
77146;SDS011;66121;52.584;9.694;2023-03-23T02:53:59;7.72;;;4.60;;
77146;SDS011;66121;52.584;9.694;2023-03-23T02:56:27;8.95;;;4.55;;
77146;SDS011;66121;52.584;9.694;2023-03-23T02:58:54;7.32;;;4.30;;
77146;SDS011;66121;52.584;9.694;2023-03-23T03:03:54;7.13;;;4.07;;
77146;SDS011;66121;52.584;9.694;2023-03-23T03:09:20;6.85;;;4.82;;
77146;SDS011;66121;52.584;9.694;2023-03-23T03:12:02;8.52;;;4.75;;
77146;SDS011;66121;52.584;9.694;2023-03-23T03:14:41;11.75;;;4.57;;
77146;SDS011;66121;52.584;9.694;2023-03-23T03:19:44;10.35;;;4.57;;
77146;SDS011;66121;52.584;9.694;2023-03-23T03:22:13;6.90;;;3.95;;
77146;SDS011;66121;52.584;9.694;2023-03-23T03:24:40;7.47;;;4.35;;
77146;SDS011;66121;52.584;9.694;2023-03-23T03:27:11;8.50;;;4.63;;
77146;SDS011;66121;52.584;9.694;2023-03-23T03:29:40;9.20;;;4.38;;
77146;SDS011;66121;52.584;9.694;2023-03-23T03:32:10;8.70;;;5.18;;
77146;SDS011;66121;52.584;9.694;2023-03-23T03:34:39;6.90;;;4.38;;
77146;SDS011;66121;52.584;9.694;2023-03-23T03:37:04;7.07;;;4.18;;
77146;SDS011;66121;52.584;9.694;2023-03-23T03:39:33;7.03;;;4.40;;
77146;SDS011;66121;52.584;9.694;2023-03-23T03:42:00;6.40;;;4.28;;
77146;SDS011;66121;52.584;9.694;2023-03-23T03:44:25;8.25;;;4.30;;
77146;SDS011;66121;52.584;9.694;2023-03-23T03:46:51;8.07;;;3.97;;
77146;SDS011;66121;52.584;9.694;2023-03-23T03:49:16;6.70;;;4.13;;
77146;SDS011;66121;52.584;9.694;2023-03-23T03:51:42;8.10;;;4.30;;
77146;SDS011;66121;52.584;9.694;2023-03-23T03:54:07;8.25;;;4.35;;
77146;SDS011;66121;52.584;9.694;2023-03-23T03:56:33;7.30;;;3.85;;
77146;SDS011;66121;52.584;9.694;2023-03-23T03:59:01;7.88;;;4.30;;
77146;SDS011;66121;52.584;9.694;2023-03-23T04:01:27;5.70;;;4.15;;
77146;SDS011;66121;52.584;9.694;2023-03-23T04:03:53;8.18;;;4.47;;
77146;SDS011;66121;52.584;9.694;2023-03-23T04:06:19;10.60;;;4.05;;
77146;SDS011;66121;52.584;9.694;2023-03-23T04:08:46;7.38;;;4.00;;
77146;SDS011;66121;52.584;9.694;2023-03-23T04:11:12;7.18;;;3.92;;
77146;SDS011;66121;52.584;9.694;2023-03-23T04:13:39;9.88;;;4.68;;
77146;SDS011;66121;52.584;9.694;2023-03-23T04:16:04;8.60;;;4.53;;
77146;SDS011;66121;52.584;9.694;2023-03-23T04:18:30;5.60;;;3.95;;
77146;SDS011;66121;52.584;9.694;2023-03-23T04:20:57;5.90;;;3.63;;
77146;SDS011;66121;52.584;9.694;2023-03-23T04:23:24;8.52;;;4.40;;
77146;SDS011;66121;52.584;9.694;2023-03-23T04:25:51;8.00;;;4.03;;
77146;SDS011;66121;52.584;9.694;2023-03-23T04:28:18;10.65;;;4.30;;
77146;SDS011;66121;52.584;9.694;2023-03-23T04:30:44;8.52;;;3.90;;
77146;SDS011;66121;52.584;9.694;2023-03-23T04:33:10;6.85;;;4.30;;
77146;SDS011;66121;52.584;9.694;2023-03-23T04:35:40;6.63;;;3.58;;
77146;SDS011;66121;52.584;9.694;2023-03-23T04:38:07;4.95;;;3.33;;
77146;SDS011;66121;52.584;9.694;2023-03-23T04:40:36;9.27;;;4.43;;
77146;SDS011;66121;52.584;9.694;2023-03-23T04:43:03;9.00;;;3.35;;
77146;SDS011;66121;52.584;9.694;2023-03-23T04:45:31;6.63;;;3.70;;
77146;SDS011;66121;52.584;9.694;2023-03-23T04:47:58;6.32;;;3.45;;
77146;SDS011;66121;52.584;9.694;2023-03-23T04:50:24;5.67;;;2.67;;
77146;SDS011;66121;52.584;9.694;2023-03-23T04:52:52;5.25;;;3.00;;
77146;SDS011;66121;52.584;9.694;2023-03-23T04:55:19;7.70;;;3.00;;
77146;SDS011;66121;52.584;9.694;2023-03-23T04:57:46;5.45;;;3.00;;
77146;SDS011;66121;52.584;9.694;2023-03-23T05:00:12;8.18;;;2.95;;
77146;SDS011;66121;52.584;9.694;2023-03-23T05:02:39;5.32;;;3.10;;
77146;SDS011;66121;52.584;9.694;2023-03-23T05:05:05;7.95;;;3.08;;
77146;SDS011;66121;52.584;9.694;2023-03-23T05:07:32;4.93;;;2.85;;
77146;SDS011;66121;52.584;9.694;2023-03-23T05:09:57;4.55;;;2.70;;
77146;SDS011;66121;52.584;9.694;2023-03-23T05:12:23;4.53;;;2.80;;
77146;SDS011;66121;52.584;9.694;2023-03-23T05:14:48;4.50;;;2.50;;
77146;SDS011;66121;52.584;9.694;2023-03-23T05:17:14;5.25;;;2.80;;
77146;SDS011;66121;52.584;9.694;2023-03-23T05:19:41;4.15;;;2.50;;
77146;SDS011;66121;52.584;9.694;2023-03-23T05:22:12;6.20;;;2.70;;
77146;SDS011;66121;52.584;9.694;2023-03-23T05:24:41;4.55;;;2.55;;
77146;SDS011;66121;52.584;9.694;2023-03-23T05:27:07;5.07;;;2.25;;
77146;SDS011;66121;52.584;9.694;2023-03-23T05:29:36;5.07;;;2.50;;
77146;SDS011;66121;52.584;9.694;2023-03-23T05:32:02;4.97;;;2.47;;
77146;SDS011;66121;52.584;9.694;2023-03-23T05:34:29;4.78;;;2.45;;
77146;SDS011;66121;52.584;9.694;2023-03-23T05:36:57;4.97;;;2.40;;
77146;SDS011;66121;52.584;9.694;2023-03-23T05:39:23;3.22;;;2.17;;
77146;SDS011;66121;52.584;9.694;2023-03-23T05:41:48;4.30;;;3.03;;
77146;SDS011;66121;52.584;9.694;2023-03-23T05:44:13;3.57;;;2.20;;
77146;SDS011;66121;52.584;9.694;2023-03-23T05:46:39;5.28;;;2.75;;
77146;SDS011;66121;52.584;9.694;2023-03-23T05:49:05;3.55;;;2.30;;
77146;SDS011;66121;52.584;9.694;2023-03-23T05:51:30;3.00;;;2.10;;
77146;SDS011;66121;52.584;9.694;2023-03-23T05:53:56;3.92;;;2.00;;
77146;SDS011;66121;52.584;9.694;2023-03-23T05:56:22;3.47;;;2.20;;
77146;SDS011;66121;52.584;9.694;2023-03-23T05:58:47;4.32;;;2.40;;
77146;SDS011;66121;52.584;9.694;2023-03-23T06:01:12;3.30;;;2.03;;
77146;SDS011;66121;52.584;9.694;2023-03-23T06:03:39;4.95;;;3.05;;
77146;SDS011;66121;52.584;9.694;2023-03-23T06:06:04;5.22;;;2.40;;
77146;SDS011;66121;52.584;9.694;2023-03-23T06:08:30;4.25;;;2.03;;
77146;SDS011;66121;52.584;9.694;2023-03-23T06:10:55;5.07;;;2.50;;
77146;SDS011;66121;52.584;9.694;2023-03-23T06:13:21;3.17;;;2.05;;
77146;SDS011;66121;52.584;9.694;2023-03-23T06:15:47;4.68;;;2.33;;
77146;SDS011;66121;52.584;9.694;2023-03-23T06:18:12;5.28;;;2.13;;
77146;SDS011;66121;52.584;9.694;2023-03-23T06:20:38;3.72;;;2.17;;
77146;SDS011;66121;52.584;9.694;2023-03-23T06:23:04;3.70;;;1.92;;
77146;SDS011;66121;52.584;9.694;2023-03-23T06:25:29;6.38;;;2.50;;
77146;SDS011;66121;52.584;9.694;2023-03-23T06:27:55;8.43;;;1.98;;
77146;SDS011;66121;52.584;9.694;2023-03-23T06:30:21;3.47;;;2.20;;
77146;SDS011;66121;52.584;9.694;2023-03-23T06:32:46;4.50;;;2.10;;
77146;SDS011;66121;52.584;9.694;2023-03-23T06:35:12;4.05;;;2.00;;
77146;SDS011;66121;52.584;9.694;2023-03-23T06:37:39;3.67;;;2.40;;
77146;SDS011;66121;52.584;9.694;2023-03-23T06:40:05;3.97;;;2.20;;
77146;SDS011;66121;52.584;9.694;2023-03-23T06:42:31;4.45;;;2.00;;
77146;SDS011;66121;52.584;9.694;2023-03-23T06:44:57;6.50;;;2.20;;
77146;SDS011;66121;52.584;9.694;2023-03-23T06:47:25;3.53;;;2.03;;
77146;SDS011;66121;52.584;9.694;2023-03-23T06:49:51;4.10;;;2.00;;
77146;SDS011;66121;52.584;9.694;2023-03-23T06:52:16;3.85;;;1.98;;
77146;SDS011;66121;52.584;9.694;2023-03-23T06:54:42;2.95;;;2.03;;
77146;SDS011;66121;52.584;9.694;2023-03-23T06:57:08;3.58;;;1.90;;
77146;SDS011;66121;52.584;9.694;2023-03-23T06:59:33;2.85;;;1.83;;
77146;SDS011;66121;52.584;9.694;2023-03-23T07:01:59;2.35;;;1.70;;
77146;SDS011;66121;52.584;9.694;2023-03-23T07:04:24;4.13;;;2.00;;
77146;SDS011;66121;52.584;9.694;2023-03-23T07:06:49;4.57;;;2.13;;
77146;SDS011;66121;52.584;9.694;2023-03-23T07:09:15;5.10;;;2.03;;
77146;SDS011;66121;52.584;9.694;2023-03-23T07:11:41;2.75;;;1.70;;
77146;SDS011;66121;52.584;9.694;2023-03-23T07:14:07;3.28;;;1.75;;
77146;SDS011;66121;52.584;9.694;2023-03-23T07:16:32;3.60;;;2.13;;
77146;SDS011;66121;52.584;9.694;2023-03-23T07:18:58;3.87;;;1.93;;
77146;SDS011;66121;52.584;9.694;2023-03-23T07:21:24;5.93;;;1.83;;
77146;SDS011;66121;52.584;9.694;2023-03-23T07:23:50;3.90;;;2.05;;
77146;SDS011;66121;52.584;9.694;2023-03-23T07:26:15;4.05;;;2.28;;
77146;SDS011;66121;52.584;9.694;2023-03-23T07:28:40;4.28;;;2.28;;
77146;SDS011;66121;52.584;9.694;2023-03-23T07:31:06;4.13;;;2.25;;
77146;SDS011;66121;52.584;9.694;2023-03-23T07:33:33;3.33;;;2.13;;
77146;SDS011;66121;52.584;9.694;2023-03-23T07:35:59;4.85;;;2.10;;
77146;SDS011;66121;52.584;9.694;2023-03-23T07:38:26;6.15;;;2.60;;
77146;SDS011;66121;52.584;9.694;2023-03-23T07:40:52;4.53;;;2.42;;
77146;SDS011;66121;52.584;9.694;2023-03-23T07:43:18;3.95;;;2.30;;
77146;SDS011;66121;52.584;9.694;2023-03-23T07:45:44;5.47;;;2.25;;
77146;SDS011;66121;52.584;9.694;2023-03-23T07:48:09;4.88;;;2.40;;
77146;SDS011;66121;52.584;9.694;2023-03-23T07:50:35;4.88;;;2.33;;
77146;SDS011;66121;52.584;9.694;2023-03-23T07:53:02;6.18;;;2.50;;
77146;SDS011;66121;52.584;9.694;2023-03-23T07:55:27;6.70;;;2.67;;
77146;SDS011;66121;52.584;9.694;2023-03-23T07:57:53;4.07;;;2.63;;
77146;SDS011;66121;52.584;9.694;2023-03-23T08:00:19;7.10;;;2.78;;
77146;SDS011;66121;52.584;9.694;2023-03-23T08:02:48;5.90;;;3.05;;
77146;SDS011;66121;52.584;9.694;2023-03-23T08:05:20;6.28;;;2.50;;
77146;SDS011;66121;52.584;9.694;2023-03-23T08:07:46;6.80;;;3.08;;
77146;SDS011;66121;52.584;9.694;2023-03-23T08:10:13;5.28;;;2.90;;
77146;SDS011;66121;52.584;9.694;2023-03-23T08:12:40;6.28;;;2.75;;
77146;SDS011;66121;52.584;9.694;2023-03-23T08:15:07;7.63;;;3.30;;
77146;SDS011;66121;52.584;9.694;2023-03-23T08:17:34;9.75;;;3.53;;
77146;SDS011;66121;52.584;9.694;2023-03-23T08:20:01;9.02;;;3.25;;
77146;SDS011;66121;52.584;9.694;2023-03-23T08:22:34;5.88;;;2.67;;
77146;SDS011;66121;52.584;9.694;2023-03-23T08:25:01;7.45;;;3.20;;
77146;SDS011;66121;52.584;9.694;2023-03-23T08:27:28;10.60;;;3.10;;
77146;SDS011;66121;52.584;9.694;2023-03-23T08:29:53;6.50;;;2.70;;
77146;SDS011;66121;52.584;9.694;2023-03-23T08:32:19;6.43;;;2.87;;
77146;SDS011;66121;52.584;9.694;2023-03-23T08:34:44;5.30;;;3.23;;
77146;SDS011;66121;52.584;9.694;2023-03-23T08:37:09;5.87;;;2.90;;
77146;SDS011;66121;52.584;9.694;2023-03-23T08:39:34;8.83;;;3.70;;
77146;SDS011;66121;52.584;9.694;2023-03-23T08:42:00;4.43;;;2.25;;
77146;SDS011;66121;52.584;9.694;2023-03-23T08:44:25;4.65;;;2.50;;
77146;SDS011;66121;52.584;9.694;2023-03-23T08:46:51;8.05;;;3.08;;
77146;SDS011;66121;52.584;9.694;2023-03-23T08:49:21;5.78;;;3.08;;
77146;SDS011;66121;52.584;9.694;2023-03-23T08:51:47;4.60;;;2.60;;
77146;SDS011;66121;52.584;9.694;2023-03-23T08:54:13;5.15;;;2.70;;
77146;SDS011;66121;52.584;9.694;2023-03-23T08:56:38;5.47;;;2.55;;
77146;SDS011;66121;52.584;9.694;2023-03-23T08:59:03;5.87;;;2.90;;
77146;SDS011;66121;52.584;9.694;2023-03-23T09:01:29;5.57;;;2.70;;
77146;SDS011;66121;52.584;9.694;2023-03-23T09:03:54;5.57;;;2.47;;
77146;SDS011;66121;52.584;9.694;2023-03-23T09:06:19;6.07;;;2.97;;
77146;SDS011;66121;52.584;9.694;2023-03-23T09:08:45;6.85;;;3.03;;
77146;SDS011;66121;52.584;9.694;2023-03-23T09:11:10;6.88;;;3.08;;
77146;SDS011;66121;52.584;9.694;2023-03-23T09:13:37;8.27;;;2.90;;
77146;SDS011;66121;52.584;9.694;2023-03-23T09:16:04;5.93;;;3.05;;
77146;SDS011;66121;52.584;9.694;2023-03-23T09:18:30;6.00;;;2.70;;
77146;SDS011;66121;52.584;9.694;2023-03-23T09:20:57;7.55;;;2.85;;
77146;SDS011;66121;52.584;9.694;2023-03-23T09:23:24;6.93;;;2.80;;
77146;SDS011;66121;52.584;9.694;2023-03-23T09:25:50;6.53;;;2.70;;
77146;SDS011;66121;52.584;9.694;2023-03-23T09:28:17;4.68;;;2.75;;
77146;SDS011;66121;52.584;9.694;2023-03-23T09:30:42;8.90;;;2.60;;
77146;SDS011;66121;52.584;9.694;2023-03-23T09:33:09;4.90;;;2.78;;
77146;SDS011;66121;52.584;9.694;2023-03-23T09:35:35;7.55;;;2.85;;
77146;SDS011;66121;52.584;9.694;2023-03-23T09:38:03;7.13;;;2.80;;
77146;SDS011;66121;52.584;9.694;2023-03-23T09:43:47;4.78;;;2.70;;
77146;SDS011;66121;52.584;9.694;2023-03-23T09:46:18;6.00;;;2.40;;
77146;SDS011;66121;52.584;9.694;2023-03-23T09:48:56;9.75;;;2.90;;
77146;SDS011;66121;52.584;9.694;2023-03-23T09:51:45;10.07;;;2.50;;
77146;SDS011;66121;52.584;9.694;2023-03-23T09:57:24;4.80;;;2.80;;
77146;SDS011;66121;52.584;9.694;2023-03-23T10:00:10;6.43;;;2.88;;
77146;SDS011;66121;52.584;9.694;2023-03-23T10:05:39;7.35;;;2.33;;
77146;SDS011;66121;52.584;9.694;2023-03-23T10:08:14;4.28;;;2.80;;
77146;SDS011;66121;52.584;9.694;2023-03-23T10:16:03;8.13;;;3.05;;
77146;SDS011;66121;52.584;9.694;2023-03-23T10:21:02;10.05;;;3.30;;
77146;SDS011;66121;52.584;9.694;2023-03-23T10:29:29;5.57;;;2.75;;
77146;SDS011;66121;52.584;9.694;2023-03-23T10:32:04;5.93;;;2.63;;
77146;SDS011;66121;52.584;9.694;2023-03-23T10:37:27;7.78;;;2.60;;
77146;SDS011;66121;52.584;9.694;2023-03-23T10:39:57;4.00;;;2.53;;
77146;SDS011;66121;52.584;9.694;2023-03-23T10:44:58;7.32;;;3.70;;
77146;SDS011;66121;52.584;9.694;2023-03-23T10:47:25;6.32;;;3.00;;
77146;SDS011;66121;52.584;9.694;2023-03-23T10:49:56;7.55;;;3.10;;
77146;SDS011;66121;52.584;9.694;2023-03-23T10:54:57;3.72;;;2.47;;
77146;SDS011;66121;52.584;9.694;2023-03-23T10:57:37;7.15;;;3.20;;
77146;SDS011;66121;52.584;9.694;2023-03-23T11:02:38;6.53;;;2.88;;
77146;SDS011;66121;52.584;9.694;2023-03-23T11:05:13;4.80;;;1.88;;
77146;SDS011;66121;52.584;9.694;2023-03-23T11:07:42;4.25;;;2.05;;
77146;SDS011;66121;52.584;9.694;2023-03-23T11:10:17;5.07;;;1.80;;
77146;SDS011;66121;52.584;9.694;2023-03-23T11:12:47;4.30;;;2.25;;
77146;SDS011;66121;52.584;9.694;2023-03-23T11:15:32;3.42;;;1.60;;
77146;SDS011;66121;52.584;9.694;2023-03-23T11:18:04;5.20;;;1.95;;
77146;SDS011;66121;52.584;9.694;2023-03-23T11:20:41;6.13;;;2.05;;
77146;SDS011;66121;52.584;9.694;2023-03-23T11:23:10;6.00;;;2.10;;
77146;SDS011;66121;52.584;9.694;2023-03-23T11:28:31;10.30;;;3.03;;
77146;SDS011;66121;52.584;9.694;2023-03-23T11:31:01;3.67;;;2.20;;
77146;SDS011;66121;52.584;9.694;2023-03-23T11:33:29;8.68;;;2.83;;
77146;SDS011;66121;52.584;9.694;2023-03-23T11:35:56;4.90;;;2.58;;
77146;SDS011;66121;52.584;9.694;2023-03-23T11:38:22;4.32;;;2.95;;
77146;SDS011;66121;52.584;9.694;2023-03-23T11:40:51;9.95;;;2.95;;
77146;SDS011;66121;52.584;9.694;2023-03-23T11:43:22;6.10;;;2.78;;
77146;SDS011;66121;52.584;9.694;2023-03-23T11:46:03;5.95;;;2.50;;
77146;SDS011;66121;52.584;9.694;2023-03-23T11:48:40;5.78;;;2.90;;
77146;SDS011;66121;52.584;9.694;2023-03-23T11:51:14;8.98;;;2.83;;
77146;SDS011;66121;52.584;9.694;2023-03-23T11:56:41;8.30;;;2.70;;
77146;SDS011;66121;52.584;9.694;2023-03-23T11:59:15;4.97;;;2.45;;
77146;SDS011;66121;52.584;9.694;2023-03-23T12:02:01;6.75;;;3.22;;
77146;SDS011;66121;52.584;9.694;2023-03-23T12:13:35;6.03;;;1.95;;
77146;SDS011;66121;52.584;9.694;2023-03-23T12:16:08;5.47;;;2.10;;
77146;SDS011;66121;52.584;9.694;2023-03-23T12:19:03;3.65;;;1.92;;
77146;SDS011;66121;52.584;9.694;2023-03-23T12:35:03;3.63;;;3.30;;
77146;SDS011;66121;52.584;9.694;2023-03-23T12:38:35;4.78;;;2.38;;
77146;SDS011;66121;52.584;9.694;2023-03-23T12:40:58;3.97;;;2.10;;
77146;SDS011;66121;52.584;9.694;2023-03-23T12:46:29;4.57;;;2.33;;
77146;SDS011;66121;52.584;9.694;2023-03-23T12:49:17;3.92;;;2.30;;
77146;SDS011;66121;52.584;9.694;2023-03-23T12:51:49;4.95;;;2.83;;
77146;SDS011;66121;52.584;9.694;2023-03-23T12:54:59;5.95;;;2.40;;
77146;SDS011;66121;52.584;9.694;2023-03-23T12:57:24;5.25;;;2.33;;
77146;SDS011;66121;52.584;9.694;2023-03-23T13:00:16;5.15;;;2.50;;
77146;SDS011;66121;52.584;9.694;2023-03-23T13:02:50;6.32;;;2.50;;
77146;SDS011;66121;52.584;9.694;2023-03-23T13:07:52;3.80;;;2.50;;
77146;SDS011;66121;52.584;9.694;2023-03-23T13:10:33;4.72;;;2.15;;
77146;SDS011;66121;52.584;9.694;2023-03-23T13:13:04;3.63;;;2.20;;
77146;SDS011;66121;52.584;9.694;2023-03-23T13:21:18;4.88;;;1.90;;
77146;SDS011;66121;52.584;9.694;2023-03-23T13:23:52;2.95;;;1.70;;
77146;SDS011;66121;52.584;9.694;2023-03-23T13:28:49;5.97;;;2.00;;
77146;SDS011;66121;52.584;9.694;2023-03-23T13:33:52;3.03;;;1.77;;
77146;SDS011;66121;52.584;9.694;2023-03-23T13:36:27;9.05;;;3.83;;
77146;SDS011;66121;52.584;9.694;2023-03-23T13:38:54;5.57;;;2.10;;
77146;SDS011;66121;52.584;9.694;2023-03-23T13:41:24;3.95;;;1.65;;
77146;SDS011;66121;52.584;9.694;2023-03-23T13:43:51;2.65;;;1.45;;
77146;SDS011;66121;52.584;9.694;2023-03-23T13:48:43;5.13;;;1.70;;
77146;SDS011;66121;52.584;9.694;2023-03-23T13:56:40;3.30;;;1.40;;
77146;SDS011;66121;52.584;9.694;2023-03-23T14:01:51;3.58;;;1.38;;
77146;SDS011;66121;52.584;9.694;2023-03-23T14:04:17;3.10;;;1.40;;
77146;SDS011;66121;52.584;9.694;2023-03-23T14:06:44;2.50;;;1.00;;
77146;SDS011;66121;52.584;9.694;2023-03-23T14:09:17;2.92;;;1.30;;
77146;SDS011;66121;52.584;9.694;2023-03-23T14:11:49;3.17;;;1.10;;
77146;SDS011;66121;52.584;9.694;2023-03-23T14:14:21;1.20;;;1.10;;
77146;SDS011;66121;52.584;9.694;2023-03-23T14:19:38;3.00;;;1.20;;
77146;SDS011;66121;52.584;9.694;2023-03-23T14:22:14;1.98;;;1.20;;
77146;SDS011;66121;52.584;9.694;2023-03-23T14:24:47;2.58;;;1.58;;
77146;SDS011;66121;52.584;9.694;2023-03-23T14:27:20;3.72;;;1.20;;
77146;SDS011;66121;52.584;9.694;2023-03-23T14:29:57;1.25;;;1.02;;
77146;SDS011;66121;52.584;9.694;2023-03-23T14:32:23;2.30;;;1.10;;
77146;SDS011;66121;52.584;9.694;2023-03-23T14:34:51;1.60;;;1.00;;
77146;SDS011;66121;52.584;9.694;2023-03-23T14:37:17;1.70;;;0.90;;
77146;SDS011;66121;52.584;9.694;2023-03-23T14:39:47;1.60;;;1.33;;
77146;SDS011;66121;52.584;9.694;2023-03-23T14:42:29;2.80;;;1.05;;
77146;SDS011;66121;52.584;9.694;2023-03-23T14:44:57;1.88;;;1.20;;
77146;SDS011;66121;52.584;9.694;2023-03-23T14:47:25;1.27;;;1.00;;
77146;SDS011;66121;52.584;9.694;2023-03-23T14:49:55;2.72;;;1.33;;
77146;SDS011;66121;52.584;9.694;2023-03-23T14:52:24;1.63;;;0.98;;
77146;SDS011;66121;52.584;9.694;2023-03-23T14:54:53;1.45;;;1.20;;
77146;SDS011;66121;52.584;9.694;2023-03-23T14:57:26;1.98;;;1.27;;
77146;SDS011;66121;52.584;9.694;2023-03-23T14:59:54;1.98;;;1.20;;
77146;SDS011;66121;52.584;9.694;2023-03-23T15:04:56;2.15;;;1.17;;
77146;SDS011;66121;52.584;9.694;2023-03-23T15:07:29;1.83;;;1.30;;
77146;SDS011;66121;52.584;9.694;2023-03-23T15:09:58;3.30;;;1.42;;
77146;SDS011;66121;52.584;9.694;2023-03-23T15:12:24;2.65;;;1.45;;
77146;SDS011;66121;52.584;9.694;2023-03-23T15:14:56;4.05;;;1.70;;
77146;SDS011;66121;52.584;9.694;2023-03-23T15:17:27;3.42;;;1.55;;
77146;SDS011;66121;52.584;9.694;2023-03-23T15:19:56;4.45;;;1.60;;
77146;SDS011;66121;52.584;9.694;2023-03-23T15:24:51;2.25;;;1.42;;
77146;SDS011;66121;52.584;9.694;2023-03-23T15:27:27;2.30;;;1.30;;
77146;SDS011;66121;52.584;9.694;2023-03-23T15:29:56;3.88;;;1.40;;
77146;SDS011;66121;52.584;9.694;2023-03-23T15:32:30;2.85;;;1.33;;
77146;SDS011;66121;52.584;9.694;2023-03-23T15:35:03;3.20;;;1.30;;
77146;SDS011;66121;52.584;9.694;2023-03-23T15:37:36;6.72;;;1.70;;
77146;SDS011;66121;52.584;9.694;2023-03-23T15:40:13;2.67;;;1.63;;
77146;SDS011;66121;52.584;9.694;2023-03-23T15:42:41;3.65;;;2.00;;
77146;SDS011;66121;52.584;9.694;2023-03-23T15:52:38;2.72;;;1.75;;
77146;SDS011;66121;52.584;9.694;2023-03-23T15:55:14;2.03;;;1.50;;
77146;SDS011;66121;52.584;9.694;2023-03-23T15:57:47;1.83;;;1.40;;
77146;SDS011;66121;52.584;9.694;2023-03-23T16:00:17;3.38;;;1.70;;
77146;SDS011;66121;52.584;9.694;2023-03-23T16:02:45;2.55;;;1.92;;
77146;SDS011;66121;52.584;9.694;2023-03-23T16:05:13;4.22;;;2.20;;
77146;SDS011;66121;52.584;9.694;2023-03-23T16:07:39;3.72;;;2.00;;
77146;SDS011;66121;52.584;9.694;2023-03-23T16:10:05;2.55;;;1.70;;
77146;SDS011;66121;52.584;9.694;2023-03-23T16:12:31;3.63;;;1.80;;
77146;SDS011;66121;52.584;9.694;2023-03-23T16:14:57;2.70;;;1.73;;
77146;SDS011;66121;52.584;9.694;2023-03-23T16:17:23;3.15;;;1.80;;
77146;SDS011;66121;52.584;9.694;2023-03-23T16:19:48;2.93;;;2.23;;
77146;SDS011;66121;52.584;9.694;2023-03-23T16:22:14;4.65;;;1.85;;
77146;SDS011;66121;52.584;9.694;2023-03-23T16:24:39;3.15;;;1.60;;
77146;SDS011;66121;52.584;9.694;2023-03-23T16:27:05;4.85;;;2.15;;
77146;SDS011;66121;52.584;9.694;2023-03-23T16:29:30;3.70;;;2.08;;
77146;SDS011;66121;52.584;9.694;2023-03-23T16:31:56;3.13;;;1.85;;
77146;SDS011;66121;52.584;9.694;2023-03-23T16:34:21;3.95;;;1.90;;
77146;SDS011;66121;52.584;9.694;2023-03-23T16:36:47;3.35;;;1.73;;
77146;SDS011;66121;52.584;9.694;2023-03-23T16:39:12;2.87;;;2.03;;
77146;SDS011;66121;52.584;9.694;2023-03-23T16:41:39;5.57;;;2.33;;
77146;SDS011;66121;52.584;9.694;2023-03-23T16:44:05;4.82;;;2.38;;
77146;SDS011;66121;52.584;9.694;2023-03-23T16:46:30;4.45;;;2.30;;
77146;SDS011;66121;52.584;9.694;2023-03-23T16:48:56;4.57;;;2.53;;
77146;SDS011;66121;52.584;9.694;2023-03-23T16:51:21;5.57;;;2.45;;
77146;SDS011;66121;52.584;9.694;2023-03-23T16:53:47;5.38;;;2.60;;
77146;SDS011;66121;52.584;9.694;2023-03-23T16:56:12;5.30;;;2.80;;
77146;SDS011;66121;52.584;9.694;2023-03-23T16:58:37;3.57;;;2.37;;
77146;SDS011;66121;52.584;9.694;2023-03-23T17:01:03;4.90;;;2.78;;
77146;SDS011;66121;52.584;9.694;2023-03-23T17:03:29;4.40;;;2.50;;